Time;durP1;ratioP1;P1;durP2;ratioP2;P2;SDS_P1;SDS_P2;PMS_P1;PMS_P2;Temp;Humidity;BMP_temperature;BMP_pressure;BME280_temperature;BME280_humidity;BME280_pressure;Samples;Min_cycle;Max_cycle;Signal;HPM_P1;HPM_P2
2022/04/12 00:00:56;;;;;;;10.05;3.63;;;;;;;-144.47;44.97;53392.41;5043527;28;20156;-69
2022/04/12 00:03:22;;;;;;;11.93;2.75;;;;;;;-144.47;45.24;53416.22;5046847;28;20112;-69
2022/04/12 00:05:47;;;;;;;7.53;3.05;;;;;;;-144.47;45.56;53442.06;5034963;28;20119;-72
2022/04/12 00:08:13;;;;;;;7.22;2.50;;;;;;;-144.47;45.90;53452.00;5028424;28;20040;-70
2022/04/12 00:10:39;;;;;;;9.90;3.35;;;;;;;-144.47;46.20;53436.09;5036589;28;20013;-70
2022/04/12 00:13:04;;;;;;;6.32;2.78;;;;;;;-144.47;46.05;53432.13;5037902;28;20022;-67
2022/04/12 00:15:30;;;;;;;6.80;2.72;;;;;;;-144.47;46.09;53404.31;5036969;28;20053;-67
2022/04/12 00:20:40;;;;;;;6.72;2.88;;;;;;;-144.47;46.10;53422.19;5040715;28;20048;-70
2022/04/12 00:23:06;;;;;;;7.63;3.08;;;;;;;-144.47;46.23;53424.19;5041485;28;20033;-70
2022/04/12 00:25:31;;;;;;;7.57;2.63;;;;;;;-144.47;46.70;53434.09;5016245;28;20027;-71
2022/04/12 00:27:58;;;;;;;9.32;3.20;;;;;;;-144.47;46.49;53414.25;5030675;28;20081;-67
2022/04/12 00:30:26;;;;;;;6.00;2.65;;;;;;;-144.47;46.37;53434.09;5041832;28;20029;-70
2022/04/12 00:32:52;;;;;;;14.93;3.67;;;;;;;-144.47;46.48;53446.03;5023492;28;20060;-71
2022/04/12 00:35:19;;;;;;;10.07;2.95;;;;;;;-144.47;46.36;53416.22;5037995;28;20065;-72
2022/04/12 00:37:46;;;;;;;8.07;3.28;;;;;;;-144.47;45.93;53455.97;5043423;28;20021;-69
2022/04/12 00:40:18;;;;;;;6.70;3.20;;;;;;;-144.47;46.32;53404.31;5036946;28;20022;-68
2022/04/12 00:42:47;;;;;;;7.50;2.95;;;;;;;-144.47;45.94;53404.31;5042713;28;20029;-72
2022/04/12 00:45:12;;;;;;;9.60;3.50;;;;;;;-144.47;46.04;53388.41;5033927;28;20148;-71
2022/04/12 00:47:39;;;;;;;11.98;2.95;;;;;;;-144.47;46.34;53432.13;5027067;28;20050;-69
2022/04/12 00:50:06;;;;;;;10.68;2.70;;;;;;;-144.47;46.38;53432.13;5042824;28;20048;-70
2022/04/12 00:52:36;;;;;;;9.63;3.70;;;;;;;-144.47;46.18;53420.22;5048295;28;20059;-70
2022/04/12 00:55:03;;;;;;;10.15;3.65;;;;;;;-144.47;46.20;53420.22;5049536;28;20081;-70
2022/04/12 00:57:30;;;;;;;9.38;3.35;;;;;;;-144.47;46.37;53424.19;5026812;28;20028;-68
2022/04/12 00:59:58;;;;;;;6.60;3.03;;;;;;;-144.47;46.40;53448.00;5046153;28;20516;-69
2022/04/12 01:02:24;;;;;;;7.50;3.60;;;;;;;-144.47;46.67;53420.22;5048016;28;20036;-68
2022/04/12 01:04:50;;;;;;;7.03;3.15;;;;;;;-144.47;47.07;53410.28;5043025;28;20038;-69
2022/04/12 01:07:16;;;;;;;9.85;3.30;;;;;;;-144.47;46.60;53430.13;5035821;28;20608;-71
2022/04/12 01:09:41;;;;;;;7.18;3.10;;;;;;;-144.47;47.05;53418.22;5041052;28;20116;-72
2022/04/12 01:12:09;;;;;;;9.27;3.33;;;;;;;-144.47;46.79;53442.06;5046859;28;20025;-69
2022/04/12 01:14:35;;;;;;;12.55;3.08;;;;;;;-144.47;46.61;53424.19;5041394;28;20033;-70
2022/04/12 01:17:06;;;;;;;9.38;3.10;;;;;;;-144.47;47.04;53404.31;5045052;28;20035;-72
2022/04/12 01:19:31;;;;;;;7.38;3.08;;;;;;;-144.47;46.87;53402.31;5043738;28;20035;-72
2022/04/12 01:22:05;;;;;;;12.50;3.20;;;;;;;-144.47;47.09;53442.06;5050269;28;20025;-71
2022/04/12 01:24:32;;;;;;;7.78;3.10;;;;;;;-144.47;46.58;53390.41;5023537;28;20040;-74
2022/04/12 01:26:57;;;;;;;7.55;2.95;;;;;;;-144.47;46.87;53452.00;5025642;28;20632;-72
2022/04/12 01:29:23;;;;;;;7.72;2.55;;;;;;;-144.47;47.04;53442.06;5039732;28;20029;-70
2022/04/12 01:31:49;;;;;;;7.50;3.03;;;;;;;-144.47;47.34;53402.31;5038496;28;20017;-70
2022/04/12 01:34:14;;;;;;;9.07;3.15;;;;;;;-144.47;47.44;53455.97;5049004;28;20017;-70
2022/04/12 01:36:42;;;;;;;7.05;3.03;;;;;;;-144.47;48.02;53410.28;5044072;28;20400;-70
2022/04/12 01:39:08;;;;;;;5.35;2.50;;;;;;;-144.47;47.57;53392.41;5041793;28;20045;-70
2022/04/12 01:41:33;;;;;;;7.03;2.92;;;;;;;-144.47;47.56;53448.00;5037821;28;20519;-70
2022/04/12 01:43:58;;;;;;;12.18;3.63;;;;;;;-144.47;47.64;53424.19;5037544;28;20041;-71
2022/04/12 01:46:24;;;;;;;7.15;2.88;;;;;;;-144.47;47.79;53436.09;5051889;28;20017;-71
2022/04/12 01:48:49;;;;;;;10.15;2.97;;;;;;;-144.47;48.29;53408.28;5040803;28;20048;-70
2022/04/12 01:51:18;;;;;;;5.60;2.28;;;;;;;-144.47;47.80;53463.91;5024431;28;20025;-71
2022/04/12 01:53:43;;;;;;;5.95;2.97;;;;;;;-144.47;48.07;53440.06;5040553;28;20534;-69
2022/04/12 01:56:09;;;;;;;8.20;2.95;;;;;;;-144.47;47.76;53398.34;5048305;28;20029;-71
2022/04/12 01:58:36;;;;;;;6.50;2.72;;;;;;;-144.47;47.59;53410.28;5041635;28;20467;-70
2022/04/12 02:01:02;;;;;;;12.63;3.20;;;;;;;-144.47;47.64;53426.16;5022681;28;20025;-70
2022/04/12 02:03:27;;;;;;;7.93;2.88;;;;;;;-144.47;47.67;53394.38;5019311;28;20128;-70
2022/04/12 02:05:54;;;;;;;8.05;2.63;;;;;;;-144.47;47.85;53436.09;5043863;28;20060;-69
2022/04/12 02:08:19;;;;;;;8.63;2.95;;;;;;;-144.47;47.74;53422.19;5048662;28;20040;-69
2022/04/12 02:10:45;;;;;;;6.90;3.13;;;;;;;-144.47;47.67;53404.31;5038343;28;20021;-69
2022/04/12 02:13:10;;;;;;;6.80;2.83;;;;;;;-144.47;47.99;53394.38;5041291;28;20127;-68
2022/04/12 02:15:35;;;;;;;8.35;3.35;;;;;;;-144.47;48.11;53420.22;5033591;28;20039;-67
2022/04/12 02:18:01;;;;;;;9.27;3.20;;;;;;;-144.47;47.93;53424.19;5038854;28;20115;-67
2022/04/12 02:20:27;;;;;;;7.55;2.95;;;;;;;-144.47;48.27;53448.00;5043140;28;20051;-69
2022/04/12 02:22:53;;;;;;;9.30;3.05;;;;;;;-144.47;48.85;53408.28;5034736;28;20407;-70
2022/04/12 02:25:18;;;;;;;5.72;2.80;;;;;;;-144.47;48.49;53448.00;5038549;28;20064;-71
2022/04/12 02:27:43;;;;;;;8.73;2.22;;;;;;;-144.47;48.49;53414.25;5050257;28;20033;-69
2022/04/12 02:30:10;;;;;;;6.05;2.42;;;;;;;-144.47;48.32;53434.09;5044961;28;20040;-68
2022/04/12 02:32:35;;;;;;;7.35;2.80;;;;;;;-144.47;48.49;53479.81;5044079;28;20032;-68
2022/04/12 02:35:00;;;;;;;8.40;2.97;;;;;;;-144.47;48.62;53436.09;5039828;28;20041;-70
2022/04/12 02:37:27;;;;;;;6.22;2.78;;;;;;;-144.47;48.46;53465.91;5043857;28;20175;-68
2022/04/12 02:39:53;;;;;;;16.05;3.55;;;;;;;-144.47;48.88;53402.31;5043692;28;20114;-71
2022/04/12 02:42:18;;;;;;;10.52;3.00;;;;;;;-144.47;48.76;53416.22;5038540;28;20680;-69
2022/04/12 02:44:43;;;;;;;9.32;2.85;;;;;;;-144.47;49.15;53432.13;5041298;28;20478;-68
2022/04/12 02:47:09;;;;;;;9.82;2.78;;;;;;;-144.47;49.06;53412.25;5032334;28;20030;-68
2022/04/12 02:49:34;;;;;;;7.60;3.05;;;;;;;-144.47;49.55;53416.22;5040795;28;20059;-70
2022/04/12 02:51:59;;;;;;;8.70;2.80;;;;;;;-144.47;49.46;53412.25;5048152;28;20020;-68
2022/04/12 02:54:25;;;;;;;6.60;2.97;;;;;;;-144.47;49.50;53436.09;5035761;28;20030;-71
2022/04/12 02:56:50;;;;;;;9.90;3.40;;;;;;;-144.47;50.09;53442.06;5040844;28;20098;-71
2022/04/12 02:59:15;;;;;;;7.90;3.10;;;;;;;-144.47;49.79;53442.06;5039253;28;20198;-71
2022/04/12 03:01:41;;;;;;;5.63;2.78;;;;;;;-144.47;50.04;53440.06;5045450;28;20026;-70
2022/04/12 03:04:06;;;;;;;8.70;2.90;;;;;;;-144.47;49.65;53467.88;5039599;28;20450;-68
2022/04/12 03:06:31;;;;;;;7.43;3.00;;;;;;;-144.47;49.93;53450.00;5036859;28;20036;-70
2022/04/12 03:08:57;;;;;;;7.10;2.65;;;;;;;-144.47;49.95;53402.31;5044653;28;20053;-70
2022/04/12 03:11:22;;;;;;;9.38;3.00;;;;;;;-144.47;50.34;53418.22;5034035;28;20422;-70
2022/04/12 03:13:48;;;;;;;5.85;2.75;;;;;;;-144.47;50.47;53471.84;5040401;28;20096;-71
2022/04/12 03:16:14;;;;;;;7.55;3.13;;;;;;;-144.47;50.67;53428.16;5035930;28;20037;-70
2022/04/12 03:18:39;;;;;;;13.60;3.08;;;;;;;-144.47;51.02;53404.31;5035509;28;20037;-71
2022/04/12 03:21:04;;;;;;;12.07;3.65;;;;;;;-144.47;51.12;53400.34;5039431;28;20045;-70
2022/04/12 03:23:30;;;;;;;13.68;3.97;;;;;;;-144.47;51.02;53426.16;5033074;28;20490;-71
2022/04/12 03:25:55;;;;;;;6.57;3.20;;;;;;;-144.47;51.28;53420.22;5026888;28;20051;-69
2022/04/12 03:28:20;;;;;;;8.93;3.08;;;;;;;-144.47;51.18;53416.22;5048212;28;20032;-70
2022/04/12 03:30:46;;;;;;;7.85;3.28;;;;;;;-144.47;50.79;53394.38;5035566;28;20033;-69
2022/04/12 03:33:11;;;;;;;9.35;3.53;;;;;;;-144.47;51.35;53453.97;5037534;28;20659;-68
2022/04/12 03:35:36;;;;;;;10.13;3.22;;;;;;;-144.47;51.45;53426.16;5021975;28;20034;-69
2022/04/12 03:38:02;;;;;;;9.40;3.63;;;;;;;-144.47;51.22;53440.06;5041431;28;20045;-69
2022/04/12 03:40:33;;;;;;;6.30;2.90;;;;;;;-144.47;51.27;53432.13;5047060;28;20028;-70
2022/04/12 03:43:03;;;;;;;11.32;2.75;;;;;;;-144.47;51.37;53410.28;5037339;28;20041;-71
2022/04/12 03:45:29;;;;;;;11.05;3.55;;;;;;;-144.47;51.04;53408.28;5035688;28;20029;-69
2022/04/12 03:47:55;;;;;;;9.02;3.33;;;;;;;-144.47;51.19;53442.06;5043887;28;20037;-68
2022/04/12 03:50:22;;;;;;;7.32;2.83;;;;;;;-144.47;51.82;53432.13;5039368;28;20036;-70
2022/04/12 03:52:47;;;;;;;8.45;2.85;;;;;;;-144.47;51.72;53438.09;5039426;28;20056;-70
2022/04/12 03:55:13;;;;;;;9.07;3.35;;;;;;;-144.47;51.69;53414.25;5041720;28;20072;-69
2022/04/12 03:57:38;;;;;;;6.95;3.40;;;;;;;-144.47;52.38;53440.06;5039521;28;20053;-68
2022/04/12 04:00:08;;;;;;;9.18;3.05;;;;;;;-144.47;52.16;53424.19;5041306;28;20037;-69
2022/04/12 04:02:37;;;;;;;10.18;3.63;;;;;;;-144.47;52.40;53442.06;5047720;28;20112;-69
2022/04/12 04:05:04;;;;;;;8.75;3.17;;;;;;;-144.47;52.54;53420.22;5043502;28;20475;-70
2022/04/12 04:07:29;;;;;;;17.33;3.53;;;;;;;-144.47;52.80;53438.09;5038597;28;20033;-69
2022/04/12 04:09:55;;;;;;;8.43;3.65;;;;;;;-144.47;52.79;53404.31;5040974;28;20058;-69
2022/04/12 04:12:22;;;;;;;7.95;3.38;;;;;;;-144.47;52.69;53436.09;5046992;28;20124;-69
2022/04/12 04:14:48;;;;;;;9.68;3.70;;;;;;;-144.47;53.21;53453.97;5028222;28;20668;-71
2022/04/12 04:17:14;;;;;;;16.17;4.10;;;;;;;-144.47;52.77;53432.13;5021707;28;20060;-70
2022/04/12 04:19:39;;;;;;;13.77;4.10;;;;;;;-144.47;53.14;53453.97;5038680;28;20028;-69
2022/04/12 04:22:05;;;;;;;8.98;3.97;;;;;;;-144.47;53.07;53428.16;5047630;28;20090;-68
2022/04/12 04:24:30;;;;;;;10.52;4.50;;;;;;;-144.47;53.05;53420.22;5039329;28;20037;-70
2022/04/12 04:26:56;;;;;;;13.00;5.03;;;;;;;-144.47;53.26;53436.09;5020141;28;20033;-69
2022/04/12 04:29:27;;;;;;;11.75;3.88;;;;;;;-144.47;53.76;53426.16;5032968;28;20037;-68
2022/04/12 04:31:52;;;;;;;11.68;3.83;;;;;;;-144.47;53.34;53457.94;5039248;28;20516;-70
2022/04/12 04:34:18;;;;;;;11.60;4.63;;;;;;;-144.47;53.54;53440.06;5043585;28;20021;-69
2022/04/12 04:36:43;;;;;;;7.13;3.75;;;;;;;-144.47;53.28;53416.22;5045511;28;20075;-69
2022/04/12 04:39:08;;;;;;;7.45;3.53;;;;;;;-144.47;53.67;53430.13;5032068;28;20037;-68
2022/04/12 04:41:34;;;;;;;13.00;3.75;;;;;;;-144.47;53.46;53450.00;5040807;28;20117;-68
2022/04/12 04:44:00;;;;;;;9.50;3.72;;;;;;;-144.47;53.68;53424.19;5043162;28;20033;-69
2022/04/12 04:46:25;;;;;;;17.30;3.85;;;;;;;-144.47;53.56;53446.03;5036345;28;20017;-70
2022/04/12 04:48:51;;;;;;;14.27;4.25;;;;;;;-144.47;53.47;53452.00;5022929;28;20034;-69
2022/04/12 04:51:16;;;;;;;20.73;3.75;;;;;;;-144.47;52.90;53453.97;5040322;28;20045;-68
2022/04/12 04:53:45;;;;;;;10.02;3.75;;;;;;;-144.47;52.61;53469.88;5047246;28;20112;-71
2022/04/12 04:56:10;;;;;;;10.53;3.17;;;;;;;-144.47;52.97;53424.19;5040690;28;20044;-69
2022/04/12 04:58:35;;;;;;;7.72;3.55;;;;;;;-144.47;52.74;53452.00;5035554;28;20249;-70
2022/04/12 05:01:01;;;;;;;15.13;3.42;;;;;;;-144.47;52.51;53450.00;5037704;28;20718;-71
2022/04/12 05:03:27;;;;;;;17.80;3.55;;;;;;;-144.47;52.59;53469.88;5037662;28;20089;-69
2022/04/12 05:05:53;;;;;;;11.45;4.00;;;;;;;-144.47;52.76;53432.13;5041190;28;20564;-70
2022/04/12 05:08:18;;;;;;;13.10;3.85;;;;;;;-144.47;52.25;53446.03;5025077;28;20045;-70
2022/04/12 05:10:43;;;;;;;9.60;3.88;;;;;;;-144.47;52.21;53461.91;5020277;28;20509;-70
2022/04/12 05:13:09;;;;;;;19.83;4.13;;;;;;;-144.47;52.44;53453.97;5046530;28;20036;-68
2022/04/12 05:15:34;;;;;;;10.93;3.40;;;;;;;-144.47;52.38;53463.91;5019347;28;20049;-70
2022/04/12 05:17:59;;;;;;;11.68;3.40;;;;;;;-144.47;52.22;53408.28;5038352;28;20044;-69
2022/04/12 05:20:25;;;;;;;29.38;4.45;;;;;;;-144.47;52.29;53459.94;5038645;28;20036;-70
2022/04/12 05:22:52;;;;;;;33.70;5.43;;;;;;;-144.47;51.89;53428.16;5046770;28;20498;-71
2022/04/12 05:25:17;;;;;;;19.13;4.65;;;;;;;-144.47;52.12;53452.00;5038471;28;20363;-69
2022/04/12 05:27:43;;;;;;;25.73;4.00;;;;;;;-144.47;51.62;53436.09;5034769;28;20030;-71
2022/04/12 05:30:10;;;;;;;12.60;3.50;;;;;;;-144.47;51.55;53384.44;5038466;28;20029;-68
2022/04/12 05:32:36;;;;;;;10.60;3.17;;;;;;;-144.47;50.95;53424.19;5022795;28;20033;-70
2022/04/12 05:35:03;;;;;;;16.27;3.70;;;;;;;-144.47;51.05;53452.00;5019458;28;20034;-70
2022/04/12 05:37:29;;;;;;;10.45;3.78;;;;;;;-144.47;50.86;53436.09;5049665;28;20427;-70
2022/04/12 05:39:56;;;;;;;29.40;4.53;;;;;;;-144.47;50.62;53444.03;5026156;28;20092;-69
2022/04/12 05:42:22;;;;;;;21.35;3.72;;;;;;;-144.47;50.65;53448.00;5046562;28;20090;-69
2022/04/12 05:44:48;;;;;;;17.67;4.00;;;;;;;-144.47;50.75;53412.25;5049864;28;20383;-69
2022/04/12 05:47:13;;;;;;;14.10;5.63;;;;;;;-144.47;50.70;53438.09;5045266;28;20128;-70
2022/04/12 05:49:38;;;;;;;18.40;4.13;;;;;;;-144.47;50.45;53422.19;5035589;28;20021;-69
2022/04/12 05:52:04;;;;;;;11.10;3.60;;;;;;;-144.47;50.25;53430.13;5049109;28;20032;-70
2022/04/12 05:54:30;;;;;;;11.10;3.33;;;;;;;-144.47;49.98;53432.13;5044394;28;20033;-68
2022/04/12 05:56:55;;;;;;;12.65;3.38;;;;;;;-144.47;49.71;53438.09;5046940;28;20127;-70
2022/04/12 05:59:21;;;;;;;15.00;4.43;;;;;;;-144.47;49.69;53436.09;5042293;28;20387;-70
2022/04/12 06:01:47;;;;;;;16.35;3.75;;;;;;;-144.47;49.48;53434.09;5044222;28;20026;-68
2022/04/12 06:04:12;;;;;;;10.90;3.47;;;;;;;-144.47;49.65;53394.38;5021858;28;20024;-68
2022/04/12 06:06:40;;;;;;;10.73;4.45;;;;;;;-144.47;49.45;53412.25;5037955;28;20047;-72
2022/04/12 06:09:05;;;;;;;12.10;3.70;;;;;;;-144.47;49.46;53422.19;5046551;28;20053;-71
2022/04/12 06:11:31;;;;;;;12.00;3.70;;;;;;;-144.47;49.21;53422.19;5049680;28;20111;-71
2022/04/12 06:13:56;;;;;;;21.52;4.75;;;;;;;-144.47;49.15;53398.34;5047211;28;20039;-66
2022/04/12 06:16:21;;;;;;;9.38;3.63;;;;;;;-144.47;49.05;53354.66;5037955;28;20075;-69
2022/04/12 06:18:47;;;;;;;7.60;3.45;;;;;;;-144.47;48.69;53416.22;5007931;28;20399;-70
2022/04/12 06:21:12;;;;;;;9.35;3.03;;;;;;;-144.47;48.31;53410.28;5045374;28;20106;-69
2022/04/12 06:23:37;;;;;;;13.15;4.05;;;;;;;-144.47;47.90;53422.19;5049379;28;20102;-70
2022/04/12 06:26:04;;;;;;;18.25;4.18;;;;;;;-144.47;47.80;53408.28;5048838;28;20037;-70
2022/04/12 06:28:30;;;;;;;19.90;3.88;;;;;;;-144.47;47.77;53424.19;5050490;28;20469;-72
2022/04/12 06:30:59;;;;;;;11.43;3.70;;;;;;;-144.47;47.37;53394.38;5038416;28;20018;-67
2022/04/12 06:33:25;;;;;;;8.10;3.85;;;;;;;-144.47;47.29;53368.56;5035770;28;20049;-70
2022/04/12 06:35:50;;;;;;;18.35;4.90;;;;;;;-144.47;46.98;53404.31;5037766;28;20061;-70
2022/04/12 06:38:16;;;;;;;16.55;4.38;;;;;;;-144.47;46.84;53400.34;5035345;28;20056;-72
2022/04/12 06:40:43;;;;;;;12.68;4.00;;;;;;;-144.47;46.73;53396.38;5032252;28;20044;-68
2022/04/12 06:43:08;;;;;;;10.15;3.60;;;;;;;-144.47;46.84;53404.31;5032326;28;20029;-69
2022/04/12 06:45:34;;;;;;;7.57;2.88;;;;;;;-144.47;46.48;53394.38;5034752;28;20037;-69
2022/04/12 06:47:59;;;;;;;16.25;3.35;;;;;;;-144.47;46.52;53402.31;5036399;28;20037;-71
2022/04/12 06:50:26;;;;;;;21.52;4.90;;;;;;;-144.47;46.64;53400.34;5028816;28;20131;-70
2022/04/12 06:52:53;;;;;;;8.45;3.17;;;;;;;-144.47;46.07;53400.34;5030252;28;20052;-70
2022/04/12 06:55:18;;;;;;;14.60;3.63;;;;;;;-144.47;45.41;53406.31;5030650;28;20041;-71
2022/04/12 06:57:44;;;;;;;8.13;3.08;;;;;;;-144.47;45.42;53400.34;5031342;28;20040;-68
2022/04/12 07:00:10;;;;;;;9.18;3.08;;;;;;;-144.47;45.68;53418.22;5029825;28;20124;-70
2022/04/12 07:02:36;;;;;;;9.02;3.22;;;;;;;-144.47;46.00;53400.34;5028457;28;20086;-69
2022/04/12 07:05:06;;;;;;;12.00;3.58;;;;;;;-144.47;45.68;53364.59;5031029;28;20160;-76
2022/04/12 07:07:31;;;;;;;10.13;3.22;;;;;;;-144.47;45.80;53424.19;5030733;28;20475;-71
2022/04/12 07:09:57;;;;;;;10.95;3.60;;;;;;;-144.47;46.00;53392.41;5033969;28;20029;-72
2022/04/12 07:12:23;;;;;;;10.45;3.45;;;;;;;-144.47;45.60;53360.63;5032593;28;20078;-72
2022/04/12 07:14:48;;;;;;;6.68;2.95;;;;;;;-144.47;45.19;53434.09;5030518;28;20060;-70
2022/04/12 07:17:14;;;;;;;16.02;3.53;;;;;;;-144.47;45.48;53376.50;5032626;28;20519;-70
2022/04/12 07:19:39;;;;;;;12.50;3.10;;;;;;;-144.47;45.08;53384.44;5031596;28;20021;-70
2022/04/12 07:22:05;;;;;;;12.48;4.05;;;;;;;-144.47;44.82;53396.38;5029527;28;20486;-69
2022/04/12 07:24:31;;;;;;;8.98;3.22;;;;;;;-144.47;44.73;53402.31;5011343;28;20045;-71
2022/04/12 07:26:56;;;;;;;15.05;3.85;;;;;;;-144.47;44.11;53396.38;5031798;28;20498;-69
2022/04/12 07:29:22;;;;;;;13.35;3.20;;;;;;;-144.47;44.02;53362.59;5034999;28;20040;-71
2022/04/12 07:31:47;;;;;;;14.73;3.38;;;;;;;-144.47;43.73;53376.50;5032385;28;20720;-69
2022/04/12 07:34:13;;;;;;;12.90;3.90;;;;;;;-144.47;43.43;53402.31;5029589;28;20542;-70
2022/04/12 07:36:43;;;;;;;14.38;3.40;;;;;;;-144.47;43.16;53354.66;5036470;28;20099;-70
2022/04/12 07:39:08;;;;;;;11.25;3.05;;;;;;;-144.47;42.56;53362.59;5036360;28;20056;-68
2022/04/12 07:41:34;;;;;;;14.13;3.00;;;;;;;-144.47;41.70;53384.44;5033259;28;20037;-70
2022/04/12 07:43:59;;;;;;;17.27;8.23;;;;;;;-144.47;41.55;53364.59;5033605;28;20127;-71
2022/04/12 07:46:24;;;;;;;12.07;3.38;;;;;;;-144.47;41.05;53358.63;5034344;28;20044;-72
2022/04/12 07:48:50;;;;;;;14.98;2.95;;;;;;;-144.47;40.73;53378.50;5030277;28;20241;-71
2022/04/12 07:51:15;;;;;;;9.65;3.22;;;;;;;-144.47;40.38;53356.63;5066145;22;20052;-70
2022/04/12 07:53:40;;;;;;;7.82;2.78;;;;;;;-144.47;39.47;53356.63;5048388;28;20746;-69
2022/04/12 07:56:06;;;;;;;9.27;3.45;;;;;;;-144.47;39.25;53396.38;5049291;28;20051;-70
2022/04/12 07:58:31;;;;;;;13.52;2.75;;;;;;;-144.47;38.84;53334.78;5052275;28;20605;-69
2022/04/12 08:00:57;;;;;;;6.28;2.60;;;;;;;-144.47;38.64;53354.66;5052406;28;20047;-72
2022/04/12 08:03:22;;;;;;;10.15;3.00;;;;;;;-144.47;38.55;53370.53;5032530;28;20144;-70
2022/04/12 08:05:49;;;;;;;13.52;3.25;;;;;;;-144.47;38.79;53324.84;5033915;28;20021;-70
2022/04/12 08:08:14;;;;;;;7.13;2.80;;;;;;;-144.47;38.57;53348.69;5046400;28;20029;-70
2022/04/12 10:31:03;;;;;;;11.50;3.37;;;;;;;-144.47;31.74;53277.19;5001438;27;1890077;-67
2022/04/12 10:33:29;;;;;;;6.55;3.10;;;;;;;-144.47;32.11;53249.38;5022746;28;20490;-67
2022/04/12 10:35:55;;;;;;;9.05;3.17;;;;;;;-144.47;31.67;53271.22;5055205;23;20031;-70
2022/04/12 10:38:26;;;;;;;6.70;3.00;;;;;;;-144.47;32.06;53223.56;4923521;29;20024;-70
2022/04/12 10:40:54;;;;;;;7.97;3.50;;;;;;;-144.47;31.23;53261.28;4909071;29;20123;-71
2022/04/12 10:43:22;;;;;;;9.68;3.45;;;;;;;-144.47;31.72;53277.19;4927205;29;20032;-70
2022/04/12 10:45:50;;;;;;;12.68;3.45;;;;;;;-144.47;31.76;53247.38;4910230;29;20685;-72
2022/04/12 10:48:21;;;;;;;10.05;3.47;;;;;;;-144.47;31.94;53271.22;4926669;29;20095;-73
2022/04/12 10:50:48;;;;;;;12.18;3.42;;;;;;;-144.47;31.77;53277.19;4926952;29;20486;-70
2022/04/12 10:53:14;;;;;;;10.95;3.55;;;;;;;-144.47;32.12;53239.44;4926635;29;20103;-69
2022/04/12 10:55:41;;;;;;;14.98;3.13;;;;;;;-144.47;31.78;53293.06;4926990;29;20024;-71
2022/04/12 10:58:35;;;;;;;9.70;3.03;;;;;;;-144.47;31.02;53247.38;4925834;29;20477;-70
2022/04/12 11:01:02;;;;;;;8.43;3.30;;;;;;;-144.47;30.81;53253.34;4925039;29;20064;-67
2022/04/12 11:03:45;;;;;;;7.47;3.42;;;;;;;-144.47;31.75;53267.25;4925440;29;20027;-69
2022/04/12 11:06:24;;;;;;;27.73;3.92;;;;;;;-144.47;30.91;53265.25;4924715;29;20059;-70
2022/04/12 11:09:10;;;;;;;7.95;3.00;;;;;;;-144.47;30.32;53235.47;4907651;29;20059;-71
2022/04/12 11:11:40;;;;;;;10.45;3.38;;;;;;;-144.47;29.83;53281.16;4924720;29;20123;-67
2022/04/12 11:14:25;;;;;;;6.15;2.58;;;;;;;-144.47;28.55;53279.16;4925135;29;20086;-71
2022/04/12 11:16:57;;;;;;;8.13;2.38;;;;;;;-144.47;29.07;53253.34;4925227;29;20160;-68
2022/04/12 11:19:24;;;;;;;13.10;2.85;;;;;;;-144.47;27.85;53213.63;4925134;29;20024;-70
2022/04/12 11:21:54;;;;;;;8.93;2.08;;;;;;;-144.47;27.44;53187.78;4907398;29;20111;-69
2022/04/12 11:24:24;;;;;;;24.08;3.50;;;;;;;-144.47;27.75;53225.53;4925473;29;20074;-71
2022/04/12 11:27:08;;;;;;;8.35;3.22;;;;;;;-144.47;27.87;53207.66;4924757;29;20138;-71
2022/04/12 11:29:35;;;;;;;12.27;2.72;;;;;;;-144.47;27.51;53235.47;4924506;29;20028;-69
2022/04/12 11:32:01;;;;;;;10.88;2.83;;;;;;;-144.47;27.75;53213.63;4912232;29;20032;-70
2022/04/12 11:34:28;;;;;;;9.88;3.13;;;;;;;-144.47;27.86;53205.66;4912414;29;20047;-68
2022/04/12 11:36:55;;;;;;;12.23;3.05;;;;;;;-144.47;27.54;53249.38;4893527;29;20672;-72
2022/04/12 11:39:25;;;;;;;8.73;2.55;;;;;;;-144.47;26.76;53273.22;4893919;29;20136;-69
2022/04/12 11:42:05;;;;;;;11.48;2.70;;;;;;;-144.47;27.38;53171.91;4877370;29;20029;-69
2022/04/12 11:44:31;;;;;;;10.20;3.17;;;;;;;-144.47;27.00;53227.53;4883883;29;20028;-70
2022/04/12 11:47:09;;;;;;;12.45;2.22;;;;;;;-144.47;26.49;53233.47;4913125;29;20093;-70
2022/04/12 11:49:39;;;;;;;23.52;3.28;;;;;;;-144.47;26.85;53217.59;4918477;29;20394;-71
2022/04/12 11:52:10;;;;;;;15.90;3.20;;;;;;;-144.47;27.06;53199.72;4911691;29;20123;-71
2022/04/12 11:54:37;;;;;;;11.25;2.85;;;;;;;-144.47;26.61;53215.59;4909660;29;20391;-69
2022/04/12 11:57:06;;;;;;;26.77;3.22;;;;;;;-144.47;26.78;53223.56;4911084;29;20032;-74
2022/04/12 11:59:37;;;;;;;9.88;2.28;;;;;;;-144.47;26.71;53251.34;4894254;29;20032;-71
2022/04/12 12:02:05;;;;;;;9.55;2.72;;;;;;;-144.47;27.03;53243.41;4911828;29;20031;-69
2022/04/12 12:04:32;;;;;;;7.80;2.13;;;;;;;-144.47;26.78;53229.50;4894160;29;20039;-71
2022/04/12 12:07:03;;;;;;;8.23;2.15;;;;;;;-144.47;26.63;53229.50;4911530;29;20171;-69
2022/04/12 12:09:30;;;;;;;11.07;3.35;;;;;;;-144.47;26.44;53229.50;4895603;29;20024;-70
2022/04/12 12:12:05;;;;;;;12.20;2.85;;;;;;;-144.47;26.73;53219.56;4895497;29;20036;-71
2022/04/12 12:14:30;;;;;;;15.20;2.22;;;;;;;-144.47;26.36;53205.66;4913284;29;20823;-69
2022/04/12 12:17:08;;;;;;;5.75;2.08;;;;;;;-144.47;26.36;53221.56;4895267;29;20115;-70
2022/04/12 12:19:37;;;;;;;14.20;3.30;;;;;;;-144.47;26.51;53235.47;4893607;29;20039;-71
2022/04/12 12:22:03;;;;;;;11.30;2.85;;;;;;;-144.47;25.80;53227.53;4911369;29;20046;-71
2022/04/12 12:24:29;;;;;;;6.28;2.10;;;;;;;-144.47;26.66;53261.28;4912676;29;20510;-69
2022/04/12 12:26:56;;;;;;;6.95;2.40;;;;;;;-144.47;27.38;53185.81;4911016;29;20054;-71
2022/04/12 12:29:24;;;;;;;5.90;2.85;;;;;;;-144.47;28.08;53235.47;4911449;29;20436;-68
2022/04/12 12:31:49;;;;;;;6.57;3.10;;;;;;;-144.47;28.61;53199.72;4911760;29;20141;-69
2022/04/12 12:34:32;;;;;;;5.88;2.45;;;;;;;-144.47;28.62;53219.56;4912204;29;20103;-71
2022/04/12 12:37:05;;;;;;;10.98;2.30;;;;;;;-144.47;26.09;53225.53;4911417;29;20119;-70
2022/04/12 12:39:35;;;;;;;6.03;2.75;;;;;;;-144.47;27.08;53187.78;4911684;29;20028;-71
2022/04/12 12:42:02;;;;;;;9.60;3.20;;;;;;;-144.47;28.39;53209.66;4911342;29;20028;-72
2022/04/12 12:44:31;;;;;;;9.40;3.63;;;;;;;-144.47;28.87;53229.50;4895276;29;20036;-69
2022/04/12 12:46:59;;;;;;;15.13;3.60;;;;;;;-144.47;28.23;53195.75;4912287;29;20042;-70
2022/04/12 12:49:33;;;;;;;6.77;2.83;;;;;;;-144.47;27.91;53219.56;4911729;29;20102;-69
2022/04/12 12:52:02;;;;;;;8.02;3.05;;;;;;;-144.47;27.52;53193.75;4911495;29;20642;-70
2022/04/12 12:54:28;;;;;;;13.00;2.92;;;;;;;-144.47;27.17;53187.78;4905158;29;20083;-71
2022/04/12 12:56:53;;;;;;;8.75;2.80;;;;;;;-144.47;26.41;53197.72;4911930;29;20123;-69
2022/04/12 12:59:28;;;;;;;9.80;2.63;;;;;;;-144.47;26.57;53201.69;4911386;29;20401;-71
2022/04/12 13:01:54;;;;;;;7.22;2.53;;;;;;;-144.47;25.37;53181.84;4894160;29;20035;-68
2022/04/12 13:04:31;;;;;;;6.90;2.28;;;;;;;-144.47;25.22;53217.59;4893606;29;20028;-70
2022/04/12 13:07:03;;;;;;;15.38;3.00;;;;;;;-144.47;25.09;53163.97;4911429;29;20094;-72
2022/04/12 13:09:28;;;;;;;4.97;2.40;;;;;;;-144.47;24.53;53213.63;4911782;29;20032;-70
2022/04/12 13:11:55;;;;;;;15.98;3.50;;;;;;;-144.47;24.46;53150.06;4911471;29;20121;-69
2022/04/12 13:14:20;;;;;;;5.78;2.45;;;;;;;-144.47;24.84;53189.78;4911398;29;20028;-69
2022/04/12 13:16:45;;;;;;;8.40;2.20;;;;;;;-144.47;24.91;53152.03;4911256;29;20042;-70
2022/04/12 13:19:11;;;;;;;10.82;2.90;;;;;;;-144.47;24.79;53152.03;4911035;29;20028;-70
2022/04/12 13:21:36;;;;;;;7.07;2.42;;;;;;;-144.47;24.77;53185.81;4924766;29;20028;-70
2022/04/12 13:24:01;;;;;;;5.88;1.95;;;;;;;-144.47;25.09;53203.69;4893971;29;20032;-68
2022/04/12 13:26:27;;;;;;;9.88;2.42;;;;;;;-144.47;25.23;53146.09;4911618;29;20431;-70
2022/04/12 13:28:52;;;;;;;6.50;2.40;;;;;;;-144.47;25.00;53181.84;4911416;29;20032;-69
2022/04/12 13:31:18;;;;;;;12.68;1.98;;;;;;;-144.47;24.88;53154.03;4894015;29;20027;-71
2022/04/12 13:33:43;;;;;;;6.88;2.20;;;;;;;-144.47;24.55;53193.75;4911044;29;20028;-69
2022/04/12 13:36:09;;;;;;;4.65;2.38;;;;;;;-144.47;24.35;53177.88;4911074;29;20081;-71